createdAt,value
2019-04-30T00:02:16.076Z,86.14
2019-04-30T00:04:47.239Z,85.96
2019-04-30T00:07:18.994Z,86.21
2019-04-30T00:09:49.216Z,85.41
2019-04-30T00:12:17.635Z,85.27
2019-04-30T00:14:47.112Z,85.40
2019-04-30T00:17:19.582Z,85.56
2019-04-30T00:19:50.489Z,85.76
2019-04-30T00:22:16.969Z,85.81
2019-04-30T00:24:49.719Z,85.88
2019-04-30T00:27:16.722Z,86.51
2019-04-30T00:29:50.302Z,86.49
2019-04-30T00:32:18.158Z,86.63
2019-04-30T00:34:48.369Z,86.55
2019-04-30T00:37:18.902Z,86.64
2019-04-30T00:39:50.890Z,86.32
2019-04-30T00:42:23.908Z,86.44
2019-04-30T00:44:48.912Z,86.28
2019-04-30T00:47:17.611Z,86.27
2019-04-30T00:49:47.223Z,86.65
2019-04-30T00:52:15.951Z,87.04
2019-04-30T00:54:45.347Z,87.08
2019-04-30T00:57:15.161Z,87.20
2019-04-30T00:59:47.787Z,87.22
2019-04-30T01:02:32.088Z,86.49
2019-04-30T01:05:05.248Z,86.35
2019-04-30T01:07:30.297Z,86.21
2019-04-30T01:10:19.568Z,86.11
2019-04-30T01:12:50.206Z,85.88
2019-04-30T01:15:21.488Z,85.86
2019-04-30T01:17:53.777Z,85.88
2019-04-30T01:20:24.068Z,85.55
2019-04-30T01:22:52.619Z,85.90
2019-04-30T01:25:21.307Z,86.54
2019-04-30T01:27:51.975Z,86.93
2019-04-30T01:30:22.554Z,86.80
2019-04-30T01:32:56.578Z,87.22
2019-04-30T01:35:23.788Z,87.14
2019-04-30T01:37:52.534Z,87.03
2019-04-30T01:40:21.609Z,87.15
2019-04-30T01:42:51.852Z,86.59
2019-04-30T01:45:23.070Z,86.62
2019-04-30T01:47:51.489Z,86.11
2019-04-30T01:50:20.432Z,86.07
2019-04-30T01:52:55.244Z,86.23
2019-04-30T01:55:32.301Z,86.79
2019-04-30T01:58:13.372Z,86.50
2019-04-30T02:00:49.439Z,86.52
2019-04-30T02:03:19.351Z,86.26
2019-04-30T02:05:49.903Z,85.75
2019-04-30T02:08:19.568Z,85.76
2019-04-30T02:10:49.138Z,85.39
2019-04-30T02:13:18.968Z,85.52
2019-04-30T02:15:49.235Z,86.11
2019-04-30T02:18:19.529Z,85.89
2019-04-30T02:20:49.651Z,86.08
2019-04-30T02:23:19.555Z,85.76
2019-04-30T02:25:49.104Z,85.54
2019-04-30T02:28:19.026Z,85.51
2019-04-30T02:30:50.377Z,85.29
2019-04-30T02:33:19.817Z,85.35
2019-04-30T02:36:10.292Z,85.90
2019-04-30T02:38:42.659Z,85.72
2019-04-30T02:41:12.290Z,86.17
2019-04-30T02:43:42.633Z,86.46
2019-04-30T02:46:13.467Z,86.09
2019-04-30T02:48:44.530Z,85.78
2019-04-30T02:51:15.188Z,85.95
2019-04-30T02:54:42.408Z,85.85
2019-04-30T02:57:14.466Z,85.58
2019-04-30T03:00:01.560Z,85.75
2019-04-30T03:02:32.060Z,85.53
2019-04-30T03:05:00.781Z,86.07
2019-04-30T03:07:29.735Z,85.74
2019-04-30T03:09:59.804Z,85.96
2019-04-30T03:12:30.567Z,86.51
2019-04-30T03:15:00.469Z,86.82
2019-04-30T03:17:43.041Z,86.71
2019-04-30T03:20:35.613Z,86.43
2019-04-30T03:23:02.457Z,86.60
2019-04-30T03:25:30.784Z,86.39
2019-04-30T03:28:00.352Z,86.57
2019-04-30T03:30:31.898Z,86.49
2019-04-30T03:33:02.808Z,86.03
2019-04-30T03:35:32.591Z,86.20
2019-04-30T03:38:02.041Z,86.76
2019-04-30T03:40:30.979Z,87.09
2019-04-30T03:43:03.156Z,86.64
2019-04-30T03:45:30.503Z,86.40
2019-04-30T03:48:00.147Z,85.81
2019-04-30T03:50:48.123Z,85.39
2019-04-30T03:53:00.626Z,85.50
2019-04-30T03:55:30.030Z,85.37
2019-04-30T03:58:00.080Z,84.96
2019-04-30T04:00:42.167Z,85.01
2019-04-30T04:03:10.160Z,85.30
2019-04-30T04:05:43.980Z,85.39
2019-04-30T04:08:25.308Z,85.40
2019-04-30T04:11:04.300Z,86.08
2019-04-30T04:13:33.267Z,85.86
2019-04-30T04:16:02.090Z,85.62
2019-04-30T04:18:30.769Z,85.70
2019-04-30T04:21:08.896Z,85.94
2019-04-30T04:23:33.180Z,85.48
2019-04-30T04:26:02.101Z,85.76
2019-04-30T04:28:30.787Z,85.27
2019-04-30T04:31:00.090Z,85.18
2019-04-30T04:33:29.678Z,85.42
2019-04-30T04:35:59.767Z,86.31
2019-04-30T04:38:30.367Z,86.55
2019-04-30T04:41:02.648Z,86.01
2019-04-30T04:43:30.107Z,85.93
2019-04-30T04:45:59.522Z,86.00
2019-04-30T04:48:29.800Z,85.89
2019-04-30T04:51:00.124Z,86.50
2019-04-30T04:53:30.404Z,86.93
2019-04-30T04:55:59.987Z,86.81
2019-04-30T04:58:30.305Z,85.96
2019-04-30T05:00:59.357Z,86.18
2019-04-30T05:03:33.989Z,86.51
2019-04-30T05:06:02.989Z,86.19
2019-04-30T05:08:31.915Z,85.80
2019-04-30T05:11:00.919Z,85.60
2019-04-30T05:13:29.674Z,85.29
2019-04-30T05:15:59.419Z,85.64
2019-04-30T05:18:29.131Z,85.48
2019-04-30T05:20:59.034Z,85.39
2019-04-30T05:23:29.804Z,84.81
2019-04-30T05:26:01.160Z,85.22
2019-04-30T05:28:30.337Z,85.21
2019-04-30T05:30:59.447Z,85.14
2019-04-30T05:33:28.618Z,85.24
2019-04-30T05:35:59.275Z,85.61
2019-04-30T05:38:28.694Z,85.58
2019-04-30T05:40:59.656Z,85.25
2019-04-30T05:43:29.073Z,85.34
2019-04-30T05:45:58.669Z,84.68
2019-04-30T05:48:28.651Z,84.94
2019-04-30T05:50:59.143Z,84.64
2019-04-30T05:53:28.689Z,84.58
2019-04-30T05:55:59.336Z,84.11
2019-04-30T05:58:30.022Z,84.46
2019-04-30T06:00:59.703Z,83.78
2019-04-30T06:03:33.020Z,83.11
2019-04-30T06:05:59.584Z,83.67
2019-04-30T06:08:34.007Z,83.27
2019-04-30T06:11:12.931Z,83.45
2019-04-30T06:14:19.003Z,82.92
2019-04-30T06:17:04.836Z,83.54
2019-04-30T06:19:33.709Z,83.43
2019-04-30T06:22:07.430Z,83.19
2019-04-30T06:24:33.087Z,81.78
2019-04-30T06:27:02.978Z,81.27
2019-04-30T06:29:32.047Z,82.77
2019-04-30T06:32:01.053Z,83.15
2019-04-30T06:34:30.653Z,81.52
2019-04-30T06:36:59.663Z,80.64
2019-04-30T06:39:28.862Z,80.86
2019-04-30T06:42:06.423Z,80.89
2019-04-30T06:44:37.321Z,80.55
2019-04-30T06:47:03.185Z,80.96
2019-04-30T06:49:33.498Z,80.63
2019-04-30T06:52:02.510Z,82.28
2019-04-30T06:54:31.268Z,81.35
2019-04-30T06:56:59.955Z,81.66
2019-04-30T06:59:29.952Z,81.69
2019-04-30T07:01:59.086Z,80.22
2019-04-30T07:04:29.294Z,80.42
2019-04-30T07:06:59.001Z,80.38
2019-04-30T07:09:48.949Z,79.87
2019-04-30T07:12:27.313Z,80.66
2019-04-30T07:14:50.753Z,79.66
2019-04-30T07:17:19.686Z,80.90
2019-04-30T07:19:54.150Z,80.06
2019-04-30T07:22:29.061Z,80.41
2019-04-30T07:24:50.232Z,80.22
2019-04-30T07:27:23.782Z,79.90
2019-04-30T07:29:49.601Z,79.57
2019-04-30T07:32:19.734Z,79.30
2019-04-30T07:34:49.624Z,77.59
2019-04-30T07:37:24.231Z,77.29
2019-04-30T07:39:49.967Z,75.46
2019-04-30T07:42:19.346Z,74.89
2019-04-30T07:44:50.204Z,75.81
2019-04-30T07:47:19.431Z,74.47
2019-04-30T07:49:52.916Z,75.39
2019-04-30T07:52:21.527Z,77.40
2019-04-30T07:54:51.942Z,77.12
2019-04-30T07:57:19.693Z,75.21
2019-04-30T07:59:49.954Z,74.92
2019-04-30T08:02:20.835Z,74.68
2019-04-30T08:05:01.975Z,74.60
2019-04-30T08:07:31.068Z,73.78
2019-04-30T08:09:59.775Z,73.76
2019-04-30T08:12:32.080Z,73.33
2019-04-30T08:14:59.553Z,73.33
2019-04-30T08:17:28.999Z,73.61
2019-04-30T08:19:58.748Z,71.80
2019-04-30T08:22:29.648Z,71.34
2019-04-30T08:24:58.818Z,70.07
2019-04-30T08:27:29.461Z,70.34
2019-04-30T08:29:59.186Z,72.97
2019-04-30T08:32:29.011Z,73.36
2019-04-30T08:35:00.991Z,74.57
2019-04-30T08:37:29.013Z,75.02
2019-04-30T08:40:00.219Z,73.02
2019-04-30T08:42:34.016Z,73.02
2019-04-30T08:45:00.192Z,74.76
2019-04-30T08:47:29.487Z,72.58
2019-04-30T08:49:59.529Z,73.47
2019-04-30T08:52:30.505Z,73.01
2019-04-30T08:55:13.340Z,73.01
2019-04-30T08:57:31.786Z,73.06
2019-04-30T09:00:00.499Z,73.93
2019-04-30T09:02:29.247Z,72.19
2019-04-30T09:05:01.402Z,72.02
2019-04-30T09:07:32.719Z,70.92
2019-04-30T09:10:04.641Z,72.34
2019-04-30T09:12:32.221Z,67.89
2019-04-30T09:15:00.911Z,69.32
2019-04-30T09:17:29.969Z,72.96
2019-04-30T09:19:59.050Z,69.79
2019-04-30T09:22:29.335Z,69.10
2019-04-30T09:24:59.220Z,71.17
2019-04-30T09:27:29.610Z,71.90
2019-04-30T09:29:58.846Z,66.23
2019-04-30T09:32:29.176Z,66.81
2019-04-30T09:34:58.735Z,67.55
2019-04-30T09:37:27.983Z,66.58
2019-04-30T09:39:56.680Z,66.98
2019-04-30T09:42:25.995Z,65.33
2019-04-30T09:44:57.158Z,66.10
2019-04-30T09:47:25.466Z,65.56
2019-04-30T09:49:54.246Z,61.80
2019-04-30T09:52:23.061Z,63.48
2019-04-30T09:54:52.057Z,64.53
2019-04-30T09:57:21.254Z,64.80
2019-04-30T09:59:49.998Z,64.86
2019-04-30T10:02:19.293Z,64.58
2019-04-30T10:04:48.553Z,64.44
2019-04-30T10:07:19.372Z,63.46
2019-04-30T10:09:50.681Z,64.26
2019-04-30T10:12:19.521Z,64.01
2019-04-30T10:14:49.450Z,62.77
2019-04-30T10:17:37.368Z,63.66
2019-04-30T10:20:09.768Z,63.83
2019-04-30T10:22:40.121Z,65.23
2019-04-30T10:25:10.281Z,62.19
2019-04-30T10:27:39.143Z,59.42
2019-04-30T10:30:09.463Z,62.23
2019-04-30T10:32:38.390Z,62.86
2019-04-30T10:35:08.878Z,63.65
2019-04-30T10:37:38.722Z,61.73
2019-04-30T10:40:10.123Z,63.78
2019-04-30T10:42:39.223Z,62.33
2019-04-30T10:45:28.989Z,62.14
2019-04-30T10:47:59.242Z,59.47
2019-04-30T10:50:28.101Z,61.09
2019-04-30T10:52:59.001Z,62.72
2019-04-30T10:55:28.706Z,62.20
2019-04-30T10:57:59.323Z,62.38
2019-04-30T11:00:39.095Z,59.77
2019-04-30T11:03:19.061Z,61.24
2019-04-30T11:05:41.263Z,59.60
2019-04-30T11:08:10.268Z,60.23
2019-04-30T11:10:39.919Z,61.42
2019-04-30T11:13:08.862Z,60.53
2019-04-30T11:15:39.436Z,62.87
2019-04-30T11:18:08.922Z,59.13
2019-04-30T11:20:39.711Z,56.86
2019-04-30T11:23:14.613Z,56.78
2019-04-30T11:25:41.217Z,60.53
2019-04-30T11:28:10.322Z,53.05
2019-04-30T11:30:40.671Z,51.37
2019-04-30T11:33:09.716Z,52.67
2019-04-30T11:35:39.445Z,54.13
2019-04-30T11:38:08.215Z,53.19
2019-04-30T11:40:39.831Z,55.70
2019-04-30T11:43:07.667Z,52.26
2019-04-30T11:46:05.974Z,55.64
2019-04-30T11:48:35.015Z,53.57
2019-04-30T11:51:03.814Z,53.79
2019-04-30T11:53:32.571Z,52.56
2019-04-30T11:56:01.254Z,53.40
2019-04-30T11:58:30.560Z,51.55
2019-04-30T12:01:00.175Z,52.74
2019-04-30T12:03:30.381Z,51.53
2019-04-30T12:05:59.211Z,51.90
2019-04-30T12:08:31.641Z,51.28
2019-04-30T12:11:15.269Z,50.61
2019-04-30T12:13:43.468Z,51.23
2019-04-30T12:16:12.154Z,53.07
2019-04-30T12:18:40.844Z,50.16
2019-04-30T12:21:09.890Z,50.67
2019-04-30T12:23:38.823Z,52.54
2019-04-30T12:26:09.227Z,49.89
2019-04-30T12:28:38.038Z,49.52
2019-04-30T12:31:06.875Z,48.49
2019-04-30T12:33:35.646Z,49.90
2019-04-30T12:36:06.381Z,47.60
2019-04-30T12:38:35.647Z,48.71
2019-04-30T12:41:04.482Z,49.46
2019-04-30T12:43:33.530Z,47.95
2019-04-30T12:46:05.581Z,50.33
2019-04-30T12:48:55.893Z,48.54
2019-04-30T12:51:45.060Z,47.21
2019-04-30T12:54:12.516Z,47.85
2019-04-30T12:57:00.266Z,46.28
2019-04-30T12:59:29.541Z,46.62
2019-04-30T13:01:59.361Z,46.47
2019-04-30T13:04:29.354Z,47.09
2019-04-30T13:07:01.590Z,46.78
2019-04-30T13:09:30.298Z,47.45
2019-04-30T13:12:00.583Z,48.75
2019-04-30T13:14:31.117Z,48.97
2019-04-30T13:17:00.133Z,49.44
2019-04-30T13:19:28.918Z,49.45
2019-04-30T13:21:58.704Z,48.08
2019-04-30T13:24:49.772Z,48.65
2019-04-30T13:27:22.299Z,46.91
2019-04-30T13:30:24.428Z,46.81
2019-04-30T13:33:03.706Z,46.29
2019-04-30T13:35:32.499Z,50.10
2019-04-30T13:38:08.396Z,47.07
2019-04-30T13:40:43.475Z,45.82
2019-04-30T13:43:12.837Z,47.32
2019-04-30T13:45:41.937Z,45.68
2019-04-30T13:48:10.641Z,46.87
2019-04-30T13:50:39.627Z,47.59
2019-04-30T13:53:09.017Z,46.83
2019-04-30T13:55:45.648Z,47.93
2019-04-30T13:58:08.746Z,48.18
2019-04-30T14:00:39.758Z,49.55
2019-04-30T14:03:19.992Z,48.57
2019-04-30T14:05:51.606Z,49.16
2019-04-30T14:08:31.527Z,47.96
2019-04-30T14:11:00.941Z,47.00
2019-04-30T14:13:29.802Z,47.99
2019-04-30T14:15:58.734Z,46.91
2019-04-30T14:18:33.650Z,46.75
2019-04-30T14:21:00.762Z,46.76
2019-04-30T14:23:29.192Z,46.49
2019-04-30T14:26:01.204Z,48.34
2019-04-30T14:28:29.937Z,46.67
2019-04-30T14:30:58.928Z,46.93
2019-04-30T14:33:29.390Z,46.91
2019-04-30T14:36:00.553Z,46.75
2019-04-30T14:38:29.035Z,47.75
2019-04-30T14:41:00.596Z,47.13
2019-04-30T14:43:46.818Z,47.73
2019-04-30T14:46:40.892Z,47.63
2019-04-30T14:49:28.870Z,46.39
2019-04-30T14:51:59.532Z,46.58
2019-04-30T14:54:39.179Z,46.67
2019-04-30T14:57:15.374Z,46.43
2019-04-30T15:00:05.781Z,46.44
2019-04-30T15:02:38.090Z,46.69
2019-04-30T15:05:08.994Z,47.59
2019-04-30T15:07:39.664Z,46.53
2019-04-30T15:10:08.918Z,46.07
2019-04-30T15:12:37.938Z,47.43
2019-04-30T15:15:06.804Z,48.00
2019-04-30T15:17:35.895Z,47.44
2019-04-30T15:20:05.138Z,47.96
2019-04-30T15:22:36.418Z,48.27
2019-04-30T15:25:05.946Z,46.96
2019-04-30T15:27:34.938Z,48.26
2019-04-30T15:30:04.112Z,47.63
2019-04-30T15:32:33.849Z,46.21
2019-04-30T15:35:03.147Z,46.82
2019-04-30T15:37:32.143Z,47.48
2019-04-30T15:40:00.851Z,47.32
2019-04-30T15:42:29.922Z,47.89
2019-04-30T15:44:59.585Z,47.49
2019-04-30T15:47:28.866Z,47.22
2019-04-30T15:50:01.843Z,47.79
2019-04-30T15:52:28.830Z,46.96
2019-04-30T15:54:59.211Z,47.48
2019-04-30T15:57:29.548Z,48.10
2019-04-30T15:59:59.115Z,48.26
2019-04-30T16:02:57.073Z,47.13
2019-04-30T16:05:31.009Z,46.84
2019-04-30T16:08:12.992Z,47.77
2019-04-30T16:11:00.134Z,47.52
2019-04-30T16:13:31.683Z,47.64
2019-04-30T16:16:00.378Z,47.81
2019-04-30T16:18:51.307Z,46.93
2019-04-30T16:21:20.155Z,47.48
2019-04-30T16:23:49.322Z,47.41
2019-04-30T16:26:18.435Z,48.13
2019-04-30T16:28:49.508Z,48.28
2019-04-30T16:31:18.918Z,48.49
2019-04-30T16:33:49.404Z,49.62
2019-04-30T16:36:19.340Z,49.19
2019-04-30T16:38:48.767Z,49.82
2019-04-30T16:41:30.743Z,50.05
2019-04-30T16:43:49.345Z,50.73
2019-04-30T16:46:18.447Z,50.72
2019-04-30T16:48:49.304Z,51.78
2019-04-30T16:51:20.252Z,51.70
2019-04-30T16:53:49.239Z,51.95
2019-04-30T16:56:18.727Z,52.08
2019-04-30T16:59:00.132Z,51.95
2019-04-30T17:01:29.776Z,52.01
2019-04-30T17:04:05.918Z,52.20
2019-04-30T17:06:44.692Z,52.53
2019-04-30T17:09:23.363Z,53.31
2019-04-30T17:12:08.619Z,53.96
2019-04-30T17:14:38.869Z,53.54
2019-04-30T17:17:07.943Z,54.21
2019-04-30T17:19:39.240Z,53.96
2019-04-30T17:22:07.960Z,54.88
2019-04-30T17:24:39.446Z,55.02
2019-04-30T17:27:17.173Z,54.30
2019-04-30T17:29:41.641Z,54.59
2019-04-30T17:32:10.769Z,55.08
2019-04-30T17:34:39.451Z,55.11
2019-04-30T17:37:09.139Z,55.17
2019-04-30T17:39:40.844Z,55.58
2019-04-30T17:42:08.968Z,55.34
2019-04-30T17:44:39.728Z,55.74
2019-04-30T17:47:09.136Z,56.26
2019-04-30T17:49:38.090Z,56.04
2019-04-30T17:52:08.834Z,56.62
2019-04-30T17:54:37.995Z,56.75
2019-04-30T17:57:10.458Z,57.10
2019-04-30T17:59:37.978Z,57.30
2019-04-30T18:02:09.639Z,57.39
2019-04-30T18:04:38.406Z,57.23
2019-04-30T18:07:07.265Z,57.70
2019-04-30T18:09:36.333Z,57.88
2019-04-30T18:12:05.106Z,57.80
2019-04-30T18:14:33.822Z,58.30
2019-04-30T18:17:02.794Z,58.52
2019-04-30T18:19:43.289Z,58.63
2019-04-30T18:22:32.404Z,58.52
2019-04-30T18:25:10.644Z,58.99
2019-04-30T18:27:46.438Z,59.23
2019-04-30T18:30:19.000Z,58.77
2019-04-30T18:32:48.790Z,59.04
2019-04-30T18:35:20.070Z,59.09
2019-04-30T18:37:48.909Z,59.45
2019-04-30T18:40:18.682Z,59.25
2019-04-30T18:42:49.434Z,59.31
2019-04-30T18:45:19.435Z,59.66
2019-04-30T18:47:48.222Z,59.43
2019-04-30T18:50:17.454Z,59.20
2019-04-30T18:52:50.353Z,59.71
2019-04-30T18:55:19.279Z,59.83
2019-04-30T18:57:56.487Z,59.99
2019-04-30T19:00:29.432Z,60.18
2019-04-30T19:02:58.642Z,60.28
2019-04-30T19:05:30.899Z,60.49
2019-04-30T19:08:04.677Z,60.79
2019-04-30T19:10:55.519Z,60.81
2019-04-30T19:13:52.183Z,60.68
2019-04-30T19:16:46.301Z,61.29
2019-04-30T19:19:23.671Z,61.50
2019-04-30T19:21:52.457Z,61.89
2019-04-30T19:24:21.143Z,62.13
2019-04-30T19:26:49.934Z,62.32
2019-04-30T19:29:19.043Z,62.33
2019-04-30T19:31:49.443Z,62.64
2019-04-30T19:34:18.195Z,62.70
2019-04-30T19:36:49.123Z,63.39
2019-04-30T19:39:19.535Z,63.29
2019-04-30T19:41:49.067Z,63.25
2019-04-30T19:44:20.667Z,63.65
2019-04-30T19:46:48.816Z,63.59
2019-04-30T19:49:19.207Z,63.63
2019-04-30T19:51:49.531Z,63.78
2019-04-30T19:54:19.318Z,64.23
2019-04-30T19:56:50.161Z,64.49
2019-04-30T19:59:19.401Z,64.51
2019-04-30T20:01:50.283Z,63.99
2019-04-30T20:04:19.017Z,64.27
2019-04-30T20:06:48.751Z,64.18
2019-04-30T20:09:19.430Z,64.36
2019-04-30T20:11:49.299Z,64.37
2019-04-30T20:14:18.663Z,64.08
2019-04-30T20:16:48.710Z,64.19
2019-04-30T20:19:17.559Z,64.38
2019-04-30T20:21:53.003Z,64.26
2019-04-30T20:24:19.052Z,63.85
2019-04-30T20:26:48.781Z,63.75
2019-04-30T20:29:18.740Z,63.67
2019-04-30T20:31:48.762Z,62.82
2019-04-30T20:34:19.217Z,61.83
2019-04-30T20:36:48.168Z,61.48
2019-04-30T20:39:24.014Z,60.41
2019-04-30T20:41:53.741Z,60.16
2019-04-30T20:44:22.874Z,58.21
2019-04-30T20:46:51.580Z,58.35
2019-04-30T20:49:20.277Z,57.09
2019-04-30T20:51:55.297Z,56.92
2019-04-30T20:54:21.597Z,55.74
2019-04-30T20:56:51.032Z,55.83
2019-04-30T20:59:19.873Z,56.52
2019-04-30T21:01:49.006Z,57.49
2019-04-30T21:04:20.943Z,58.94
2019-04-30T21:06:49.612Z,59.08
2019-04-30T21:09:18.541Z,58.95
2019-04-30T21:11:48.973Z,57.98
2019-04-30T21:14:19.165Z,57.52
2019-04-30T21:16:48.190Z,57.05
2019-04-30T21:19:16.893Z,56.75
2019-04-30T21:21:45.559Z,57.23
2019-04-30T21:24:14.698Z,57.50
2019-04-30T21:26:43.487Z,57.00
2019-04-30T21:29:15.642Z,56.65
2019-04-30T21:32:03.928Z,56.40
2019-04-30T21:34:51.655Z,55.59
2019-04-30T21:37:20.343Z,54.45
2019-04-30T21:39:50.135Z,54.12
2019-04-30T21:42:18.934Z,53.31
2019-04-30T21:44:47.631Z,53.64
2019-04-30T21:47:16.310Z,53.05
2019-04-30T21:49:45.003Z,53.34
2019-04-30T21:52:13.914Z,53.51
2019-04-30T21:54:42.630Z,52.66
2019-04-30T21:57:11.477Z,53.22
2019-04-30T21:59:40.422Z,52.94
2019-04-30T22:02:09.894Z,52.61
2019-04-30T22:04:38.828Z,53.50
2019-04-30T22:07:09.359Z,54.21
2019-04-30T22:09:38.401Z,54.30
2019-04-30T22:12:09.078Z,54.18
2019-04-30T22:14:37.609Z,55.74
2019-04-30T22:17:06.689Z,56.46
2019-04-30T22:19:38.410Z,56.96
2019-04-30T22:22:09.263Z,57.78
2019-04-30T22:24:38.841Z,58.59
2019-04-30T22:27:07.562Z,59.20
2019-04-30T22:29:41.747Z,60.17
2019-04-30T22:32:06.989Z,60.48
2019-04-30T22:34:35.992Z,62.44
2019-04-30T22:37:04.964Z,64.21
2019-04-30T22:39:39.546Z,64.79
2019-04-30T22:42:30.023Z,64.50
2019-04-30T22:44:58.961Z,64.08
2019-04-30T22:47:28.203Z,63.54
2019-04-30T22:49:56.900Z,63.44
2019-04-30T22:52:25.688Z,64.15
2019-04-30T22:54:54.395Z,64.66
2019-04-30T22:57:23.084Z,65.03
2019-04-30T22:59:52.046Z,65.69
2019-04-30T23:02:49.124Z,65.96
2019-04-30T23:05:18.765Z,66.64
2019-04-30T23:07:47.566Z,66.02
2019-04-30T23:10:18.072Z,66.37
2019-04-30T23:12:49.006Z,66.68
2019-04-30T23:15:19.147Z,66.49
2019-04-30T23:17:49.336Z,67.15
2019-04-30T23:20:19.461Z,68.18
2019-04-30T23:22:48.562Z,68.02
2019-04-30T23:25:17.559Z,68.30
2019-04-30T23:27:46.488Z,68.68
2019-04-30T23:30:15.337Z,68.96
2019-04-30T23:32:44.432Z,68.91
2019-04-30T23:35:13.461Z,69.47
2019-04-30T23:37:42.723Z,69.96
2019-04-30T23:40:27.261Z,70.44
2019-04-30T23:42:56.669Z,70.82
2019-04-30T23:45:25.880Z,71.50
2019-04-30T23:47:54.870Z,71.63
2019-04-30T23:50:23.708Z,71.89
2019-04-30T23:52:52.479Z,72.53
2019-04-30T23:55:21.520Z,73.41
2019-04-30T23:57:50.512Z,73.69
